Estación de Algarrobo Bajo INIA
Ultimos registro cada 15 minutos 29
| N° | Estación | Fecha / Hora | Temperatura | Humedad | Lluvia | Velocidad | Dirección | Radiación | Presion |
| 29 | Algarrobo Bajo INIA | 06-09-2026 07:00 | 4,1 | 95,7 | 0 | 0 | 0 | 2,5 | 0 |
| 28 | Algarrobo Bajo INIA | 06-09-2026 06:45 | 4,6 | 94,4 | 0 | 0 | 0 | 0,5 | 0 |
| 27 | Algarrobo Bajo INIA | 06-09-2026 06:30 | 4,7 | 95 | 0 | 0 | 0 | 0,2 | 0 |
| 26 | Algarrobo Bajo INIA | 06-09-2026 06:15 | 4,8 | 95 | 0 | 0 | 0 | 0,2 | 0 |
| 25 | Algarrobo Bajo INIA | 06-09-2026 06:00 | 5,5 | 94,4 | 0 | 0 | 0 | 0,2 | 0 |
| 24 | Algarrobo Bajo INIA | 06-09-2026 05:45 | 5,7 | 95,3 | 0 | 0,1 | 329 | 0,2 | 0 |
| 23 | Algarrobo Bajo INIA | 06-09-2026 05:30 | 5,4 | 95,5 | 0 | 0 | 0 | 0,1 | 0 |
| 22 | Algarrobo Bajo INIA | 06-09-2026 05:15 | 5,1 | 95,1 | 0 | 0 | 54 | 0,1 | 0 |
| 21 | Algarrobo Bajo INIA | 06-09-2026 05:00 | 5,9 | 93,4 | 0 | 0 | 0 | 0 | 0 |
| 20 | Algarrobo Bajo INIA | 06-09-2026 04:45 | 6,1 | 94,6 | 0 | 0 | 318 | 0 | 0 |
| 19 | Algarrobo Bajo INIA | 06-09-2026 04:30 | 5,8 | 93,9 | 0 | 0 | 0 | 0,1 | 0 |
| 18 | Algarrobo Bajo INIA | 06-09-2026 04:15 | 6,1 | 93,6 | 0 | 0 | 0 | 0 | 0 |
| 17 | Algarrobo Bajo INIA | 06-09-2026 04:00 | 6,6 | 92,8 | 0 | 0 | 0 | 0 | 0 |
| 16 | Algarrobo Bajo INIA | 06-09-2026 03:45 | 6,9 | 92,5 | 0 | 0 | 0 | 0,1 | 0 |
| 15 | Algarrobo Bajo INIA | 06-09-2026 03:30 | 7,4 | 91,7 | 0 | 0,3 | 292 | 0 | 0 |
| 14 | Algarrobo Bajo INIA | 06-09-2026 03:15 | 7,5 | 92,2 | 0 | 0,4 | 334 | 0,1 | 0 |
| 13 | Algarrobo Bajo INIA | 06-09-2026 03:00 | 7,5 | 91 | 0 | 0,1 | 51 | 0,1 | 0 |
| 12 | Algarrobo Bajo INIA | 06-09-2026 02:45 | 8 | 90,5 | 0 | 0 | 48 | 0 | 0 |
| 11 | Algarrobo Bajo INIA | 06-09-2026 02:30 | 8,1 | 91,6 | 0 | 0,5 | 358 | 0,1 | 0 |
| 10 | Algarrobo Bajo INIA | 06-09-2026 02:15 | 7,9 | 93,4 | 0 | 0,2 | 46 | 0,1 | 0 |
| 9 | Algarrobo Bajo INIA | 06-09-2026 02:00 | 8 | 92 | 0 | 0,1 | 1 | 0 | 0 |
| 8 | Algarrobo Bajo INIA | 06-09-2026 01:45 | 7,8 | 91,3 | 0 | 0,2 | 24 | 0 | 0 |
| 7 | Algarrobo Bajo INIA | 06-09-2026 01:30 | 8,1 | 89,4 | 0 | 0,3 | 345 | 0 | 0 |
| 6 | Algarrobo Bajo INIA | 06-09-2026 01:15 | 7,8 | 91,1 | 0 | 0 | 322 | 0,1 | 0 |
| 5 | Algarrobo Bajo INIA | 06-09-2026 01:00 | 8 | 90,1 | 0 | 0 | 313 | 0,1 | 0 |
| 4 | Algarrobo Bajo INIA | 06-09-2026 00:45 | 8,3 | 90,2 | 0 | 0 | 303 | 0,1 | 0 |
| 3 | Algarrobo Bajo INIA | 06-09-2026 00:30 | 8,7 | 91 | 0 | 0 | 336 | 0,1 | 0 |
| 2 | Algarrobo Bajo INIA | 06-09-2026 00:15 | 8,6 | 90,9 | 0 | 0 | 0 | 0,1 | 0 |
| 1 | Algarrobo Bajo INIA | 06-09-2026 00:00 | 8,3 | 89,4 | 0 | 0 | 58 | 0 | 0 |